Time;durP1;ratioP1;P1;durP2;ratioP2;P2;SDS_P1;SDS_P2;PMS_P1;PMS_P2;Temp;Humidity;BMP_temperature;BMP_pressure;BME280_temperature;BME280_humidity;BME280_pressure;Samples;Min_cycle;Max_cycle;Signal;HPM_P1;HPM_P2
2021/03/04 00:01:02;;;;;;;27.50;15.23;;;153.80;1638.40;;;;;;5070843;28;20071;-53
2021/03/04 00:03:28;;;;;;;24.42;14.80;;;128.90;1664.00;;;;;;5070833;28;20025;-54
2021/03/04 00:05:53;;;;;;;32.75;19.15;;;128.80;1689.60;;;;;;5070641;28;20029;-54
2021/03/04 00:08:19;;;;;;;34.55;20.52;;;128.60;1715.20;;;;;;5070724;28;20027;-52
2021/03/04 00:10:45;;;;;;;29.73;17.75;;;128.50;1715.20;;;;;;5070234;28;20055;-54
2021/03/04 00:13:11;;;;;;;22.98;13.05;;;128.70;1689.60;;;;;;5070624;28;20421;-53
2021/03/04 00:15:39;;;;;;;21.67;13.30;;;128.70;1689.60;;;;;;5070443;28;20055;-53
2021/03/04 00:18:06;;;;;;;22.58;15.10;;;128.90;1638.40;;;;;;5070267;28;20027;-53
2021/03/04 00:20:33;;;;;;;21.83;12.45;;;153.60;1638.40;;;;;;5070512;28;20060;-53
2021/03/04 00:22:59;;;;;;;23.70;12.25;;;153.60;1638.40;;;;;;5070523;28;20111;-53
2021/03/04 00:25:29;;;;;;;23.15;13.68;;;128.90;1664.00;;;;;;5070219;28;20079;-53
2021/03/04 00:27:55;;;;;;;19.15;10.98;;;153.70;1612.80;;;;;;5070189;28;20036;-53
2021/03/04 00:30:22;;;;;;;20.35;11.73;;;153.80;1612.80;;;;;;5052157;28;20523;-54
2021/03/04 00:32:48;;;;;;;20.90;11.93;;;153.70;1612.80;;;;;;5056156;28;20417;-54
2021/03/04 00:35:14;;;;;;;16.33;10.68;;;153.80;1612.80;;;;;;5050033;28;20305;-54
2021/03/04 00:37:41;;;;;;;16.88;10.23;;;153.90;1561.60;;;;;;5050474;28;20028;-54
2021/03/04 00:40:12;;;;;;;15.60;8.85;;;154.00;1536.00;;;;;;5049879;28;20045;-53
2021/03/04 00:42:38;;;;;;;17.02;9.57;;;154.10;1536.00;;;;;;5050140;28;20032;-54
2021/03/04 00:45:09;;;;;;;15.02;8.77;;;154.10;1510.40;;;;;;5049952;28;20025;-53
2021/03/04 00:47:36;;;;;;;23.45;15.80;;;154.10;1536.00;;;;;;5050035;28;20025;-54
2021/03/04 00:50:06;;;;;;;31.45;15.25;;;154.00;1561.60;;;;;;5050167;28;20021;-53
2021/03/04 00:52:33;;;;;;;21.00;12.75;;;153.80;1612.80;;;;;;5050076;28;20497;-53
2021/03/04 00:54:59;;;;;;;16.95;10.23;;;153.70;1612.80;;;;;;5049872;28;20029;-53
2021/03/04 00:57:25;;;;;;;23.92;9.50;;;153.70;1587.20;;;;;;5049808;28;20040;-53
2021/03/04 00:59:51;;;;;;;23.30;15.90;;;153.60;1612.80;;;;;;5050159;28;20040;-53
2021/03/04 01:02:17;;;;;;;29.77;16.33;;;128.80;1664.00;;;;;;5049907;28;20037;-53
2021/03/04 01:04:43;;;;;;;21.58;12.60;;;128.60;1689.60;;;;;;5050059;28;20021;-53
2021/03/04 01:07:09;;;;;;;23.55;13.93;;;128.20;1740.80;;;;;;5050208;28;20029;-53
2021/03/04 01:09:35;;;;;;;16.20;8.32;;;128.10;1766.40;;;;;;5049646;28;20025;-60
2021/03/04 01:12:01;;;;;;;14.85;7.63;;;128.20;1715.20;;;;;;5049891;28;20494;-53
2021/03/04 01:14:27;;;;;;;13.57;8.80;;;128.40;1664.00;;;;;;5049841;28;20017;-51
2021/03/04 01:16:52;;;;;;;15.32;8.55;;;128.50;1689.60;;;;;;5049986;28;20021;-54
2021/03/04 01:19:19;;;;;;;13.82;7.78;;;128.60;1664.00;;;;;;5065228;28;20029;-53
2021/03/04 01:21:44;;;;;;;15.05;8.15;;;128.50;1689.60;;;;;;5049600;28;20037;-53
2021/03/04 01:24:10;;;;;;;17.08;9.48;;;128.40;1689.60;;;;;;5031621;28;20025;-53
2021/03/04 01:26:36;;;;;;;17.08;8.90;;;128.20;1740.80;;;;;;5049740;28;20025;-53
2021/03/04 01:29:03;;;;;;;12.88;7.90;;;128.40;1715.20;;;;;;5049755;28;20376;-52
2021/03/04 01:31:29;;;;;;;17.90;11.75;;;128.40;1715.20;;;;;;5049873;28;20031;-53
2021/03/04 01:33:54;;;;;;;17.67;10.07;;;128.40;1715.20;;;;;;5049601;28;20107;-54
2021/03/04 01:36:20;;;;;;;14.52;8.13;;;128.20;1740.80;;;;;;5031827;28;20507;-53
2021/03/04 01:38:45;;;;;;;15.73;9.70;;;128.00;1766.40;;;;;;5049481;28;20387;-53
2021/03/04 01:41:11;;;;;;;13.68;9.23;;;128.00;1766.40;;;;;;5049397;28;20037;-53
2021/03/04 01:43:37;;;;;;;15.50;10.05;;;103.20;1766.40;;;;;;5049442;28;20176;-53
2021/03/04 01:46:04;;;;;;;17.60;8.20;;;103.20;1766.40;;;;;;5049825;28;20072;-53
2021/03/04 01:48:30;;;;;;;16.52;9.77;;;103.20;1792.00;;;;;;5049540;28;20051;-53
2021/03/04 01:50:56;;;;;;;14.50;9.20;;;103.30;1740.80;;;;;;5049417;28;20475;-52
2021/03/04 01:53:22;;;;;;;19.73;11.70;;;103.30;1740.80;;;;;;5049602;28;20494;-53
2021/03/04 01:55:49;;;;;;;14.85;10.18;;;103.20;1740.80;;;;;;5049269;28;20033;-53
2021/03/04 01:58:15;;;;;;;16.77;8.68;;;103.20;1740.80;;;;;;5049169;28;20029;-53
2021/03/04 02:00:40;;;;;;;13.80;7.43;;;103.20;1740.80;;;;;;5049345;28;20040;-53
2021/03/04 02:03:06;;;;;;;10.52;6.70;;;103.20;1766.40;;;;;;5049386;28;20032;-53
2021/03/04 02:05:32;;;;;;;16.52;9.10;;;103.30;1740.80;;;;;;5049322;28;20029;-52
2021/03/04 02:08:16;;;;;;;17.35;9.07;;;103.20;1766.40;;;;;;5051005;28;20025;-53
2021/03/04 02:10:50;;;;;;;22.02;12.80;;;103.20;1766.40;;;;;;5052846;28;20063;-53
2021/03/04 02:13:50;;;;;;;17.10;11.05;;;103.20;1740.80;;;;;;5052992;28;20063;-52
2021/03/04 02:16:32;;;;;;;13.77;7.25;;;128.00;1715.20;;;;;;5052744;28;20037;-53
2021/03/04 02:19:01;;;;;;;14.15;8.50;;;128.10;1689.60;;;;;;5052941;28;20064;-52
2021/03/04 02:21:41;;;;;;;10.52;7.13;;;128.30;1664.00;;;;;;5052451;28;20033;-53
2021/03/04 02:24:21;;;;;;;13.82;7.35;;;128.40;1664.00;;;;;;5052670;28;20024;-53
2021/03/04 02:27:05;;;;;;;14.77;7.97;;;128.40;1638.40;;;;;;5052438;28;20025;-53
2021/03/04 02:29:36;;;;;;;16.27;10.13;;;128.60;1612.80;;;;;;5052848;28;20025;-53
2021/03/04 02:32:03;;;;;;;20.80;10.40;;;128.70;1612.80;;;;;;5052508;28;20120;-54
2021/03/04 02:34:29;;;;;;;10.07;6.65;;;128.80;1587.20;;;;;;5052727;28;20029;-53
2021/03/04 02:36:58;;;;;;;11.07;6.70;;;128.90;1587.20;;;;;;5052496;28;20017;-53
2021/03/04 02:39:25;;;;;;;15.27;8.80;;;128.80;1587.20;;;;;;5052085;28;20025;-53
2021/03/04 02:41:52;;;;;;;14.65;7.40;;;128.90;1561.60;;;;;;5052279;28;20506;-53
2021/03/04 02:44:21;;;;;;;16.48;8.63;;;153.60;1561.60;;;;;;5052437;28;20013;-53
2021/03/04 02:46:47;;;;;;;17.20;9.50;;;153.60;1561.60;;;;;;5052301;28;20029;-54
2021/03/04 02:49:13;;;;;;;10.43;7.25;;;128.80;1612.80;;;;;;5052274;28;20032;-54
2021/03/04 02:51:41;;;;;;;11.45;7.25;;;128.60;1638.40;;;;;;5052304;28;20116;-53
2021/03/04 02:54:08;;;;;;;16.73;7.57;;;128.60;1638.40;;;;;;5052057;28;20424;-53
2021/03/04 02:56:36;;;;;;;14.27;7.18;;;128.60;1612.80;;;;;;5052082;28;20060;-54
2021/03/04 02:59:06;;;;;;;13.73;6.82;;;128.80;1587.20;;;;;;5052069;28;20037;-53
2021/03/04 03:01:32;;;;;;;11.90;6.80;;;128.70;1612.80;;;;;;5052063;28;20041;-53
2021/03/04 03:03:59;;;;;;;11.65;7.03;;;128.40;1664.00;;;;;;5051933;28;20033;-54
2021/03/04 03:06:27;;;;;;;10.77;7.28;;;128.20;1689.60;;;;;;5051911;28;20031;-54
2021/03/04 03:08:54;;;;;;;13.05;7.03;;;128.00;1715.20;;;;;;5051882;28;20037;-53
2021/03/04 03:11:21;;;;;;;11.63;6.68;;;128.00;1689.60;;;;;;5051689;28;20514;-53
2021/03/04 03:13:50;;;;;;;10.70;7.10;;;128.20;1664.00;;;;;;5051600;28;20029;-54
2021/03/04 03:16:16;;;;;;;11.30;7.13;;;128.40;1638.40;;;;;;5051840;28;20118;-53
2021/03/04 03:18:42;;;;;;;115.32;93.60;;;128.60;1612.80;;;;;;5051679;28;20421;-54
2021/03/04 03:21:08;;;;;;;13.93;8.18;;;128.70;1638.40;;;;;;5051831;28;20049;-53
2021/03/04 03:23:34;;;;;;;13.48;8.90;;;128.60;1638.40;;;;;;5051524;28;20400;-54
2021/03/04 03:26:00;;;;;;;11.38;8.30;;;128.40;1664.00;;;;;;5051667;28;20029;-54
2021/03/04 03:28:26;;;;;;;11.45;7.47;;;128.40;1664.00;;;;;;5051446;28;20095;-54
2021/03/04 03:30:52;;;;;;;10.32;6.38;;;128.40;1638.40;;;;;;5051491;28;20099;-54
2021/03/04 03:33:19;;;;;;;11.40;9.02;;;128.40;1638.40;;;;;;5051298;28;20054;-53
2021/03/04 03:35:45;;;;;;;15.93;8.35;;;128.50;1612.80;;;;;;5051341;28;20029;-54
2021/03/04 03:38:12;;;;;;;14.20;8.35;;;128.50;1638.40;;;;;;5051520;28;20024;-52
2021/03/04 03:40:40;;;;;;;13.65;8.52;;;128.50;1638.40;;;;;;5051233;28;20048;-54
2021/03/04 03:43:09;;;;;;;12.65;7.22;;;128.40;1664.00;;;;;;5051115;28;20119;-54
2021/03/04 03:45:43;;;;;;;11.75;6.65;;;128.20;1664.00;;;;;;5050958;28;20060;-54
2021/03/04 03:48:11;;;;;;;8.38;6.20;;;128.10;1689.60;;;;;;5051387;28;20049;-54
2021/03/04 03:50:40;;;;;;;12.27;7.55;;;103.30;1689.60;;;;;;5051206;28;20104;-53
2021/03/04 03:53:06;;;;;;;8.30;5.05;;;103.20;1689.60;;;;;;5051042;28;20471;-54
2021/03/04 03:55:33;;;;;;;10.38;6.50;;;103.30;1638.40;;;;;;5051100;28;20036;-53
2021/03/04 03:58:00;;;;;;;10.68;5.55;;;128.10;1664.00;;;;;;5050910;28;20032;-54
2021/03/04 04:00:27;;;;;;;8.55;5.85;;;128.10;1664.00;;;;;;5050704;28;20033;-54
2021/03/04 04:03:01;;;;;;;9.82;6.60;;;128.20;1664.00;;;;;;5050610;28;20482;-53
2021/03/04 04:05:27;;;;;;;10.07;5.95;;;128.30;1638.40;;;;;;5050772;28;20031;-54
2021/03/04 04:07:54;;;;;;;11.07;6.10;;;128.30;1612.80;;;;;;5050754;28;20048;-53
2021/03/04 04:10:23;;;;;;;9.88;5.72;;;128.40;1612.80;;;;;;5050557;28;20542;-53
2021/03/04 04:12:49;;;;;;;9.20;6.18;;;128.40;1612.80;;;;;;5050692;28;20032;-53
2021/03/04 04:15:15;;;;;;;13.57;8.60;;;128.40;1612.80;;;;;;5050650;28;20033;-53
2021/03/04 04:17:40;;;;;;;10.75;6.60;;;128.40;1638.40;;;;;;5050537;28;20032;-54
2021/03/04 04:20:07;;;;;;;10.60;6.57;;;128.30;1638.40;;;;;;5065985;28;20032;-54
2021/03/04 04:22:33;;;;;;;12.27;7.82;;;128.30;1638.40;;;;;;5050535;28;20911;-53
2021/03/04 04:24:59;;;;;;;14.82;9.13;;;128.10;1664.00;;;;;;5050571;28;20060;-54
2021/03/04 04:27:26;;;;;;;14.65;8.30;;;128.10;1689.60;;;;;;5050174;28;20120;-54
2021/03/04 04:29:52;;;;;;;12.13;8.07;;;128.00;1689.60;;;;;;5050052;28;20078;-54
2021/03/04 04:32:17;;;;;;;11.63;7.47;;;128.20;1664.00;;;;;;5050151;28;20029;-54
2021/03/04 04:34:43;;;;;;;13.85;9.05;;;128.20;1664.00;;;;;;5050210;28;20112;-54
2021/03/04 04:37:09;;;;;;;16.15;9.60;;;128.10;1664.00;;;;;;5050540;28;20079;-54
2021/03/04 04:39:35;;;;;;;14.18;8.07;;;128.00;1664.00;;;;;;5049998;28;20045;-54
2021/03/04 04:42:00;;;;;;;14.95;8.95;;;128.10;1664.00;;;;;;5050326;28;20152;-54
2021/03/04 04:44:26;;;;;;;14.52;9.50;;;103.30;1664.00;;;;;;5050346;28;20064;-57
2021/03/04 04:46:52;;;;;;;12.02;7.53;;;103.20;1664.00;;;;;;5050388;28;20029;-54
2021/03/04 04:49:19;;;;;;;13.65;8.52;;;103.30;1664.00;;;;;;5050364;28;20032;-53
2021/03/04 04:51:44;;;;;;;13.13;9.52;;;103.20;1689.60;;;;;;5049916;28;20526;-53
2021/03/04 04:54:10;;;;;;;17.67;9.40;;;103.20;1664.00;;;;;;5050234;28;20072;-53
2021/03/04 04:56:36;;;;;;;18.48;10.68;;;103.10;1689.60;;;;;;5050226;28;20074;-54
2021/03/04 04:59:02;;;;;;;18.15;8.95;;;102.90;1715.20;;;;;;5050057;28;20033;-53
2021/03/04 05:01:28;;;;;;;20.08;10.10;;;103.20;1664.00;;;;;;5049947;28;20372;-53
2021/03/04 05:03:54;;;;;;;18.95;9.63;;;103.30;1664.00;;;;;;5049768;28;20075;-54
2021/03/04 05:06:20;;;;;;;13.57;7.93;;;103.10;1689.60;;;;;;5049955;28;20029;-54
2021/03/04 05:08:46;;;;;;;15.02;8.93;;;103.10;1689.60;;;;;;5049692;28;20032;-54
2021/03/04 05:11:12;;;;;;;17.80;8.90;;;103.00;1715.20;;;;;;5049578;28;20060;-54
2021/03/04 05:13:37;;;;;;;15.77;9.70;;;128.20;1715.20;;;;;;5049677;28;20384;-53
2021/03/04 05:16:03;;;;;;;18.08;9.43;;;103.00;1715.20;;;;;;5049739;28;20067;-54
2021/03/04 05:18:29;;;;;;;22.25;12.75;;;103.10;1715.20;;;;;;5050023;28;20029;-53
2021/03/04 05:20:55;;;;;;;25.67;11.23;;;103.00;1715.20;;;;;;5049705;28;20090;-54
2021/03/04 05:23:20;;;;;;;16.10;9.20;;;103.00;1715.20;;;;;;5049808;28;20025;-52
2021/03/04 05:25:46;;;;;;;15.45;7.68;;;102.90;1740.80;;;;;;5049613;28;20033;-54
2021/03/04 05:28:13;;;;;;;10.40;6.68;;;103.00;1664.00;;;;;;5049862;28;20025;-53
2021/03/04 05:30:40;;;;;;;11.57;7.07;;;103.20;1638.40;;;;;;5049886;28;20723;-53
2021/03/04 05:33:06;;;;;;;28.00;16.95;;;128.00;1664.00;;;;;;5049613;28;20024;-53
2021/03/04 05:35:32;;;;;;;31.67;16.15;;;128.00;1638.40;;;;;;5049685;28;20029;-52
2021/03/04 05:37:57;;;;;;;25.73;12.95;;;128.30;1638.40;;;;;;5050127;28;20066;-52
2021/03/04 05:40:25;;;;;;;17.48;9.70;;;128.30;1664.00;;;;;;5049306;28;20049;-53
2021/03/04 05:42:52;;;;;;;15.95;9.05;;;128.30;1664.00;;;;;;5051290;28;20483;-53
2021/03/04 05:45:19;;;;;;;18.25;11.00;;;103.10;1715.20;;;;;;5053361;28;20024;-53
2021/03/04 05:47:47;;;;;;;19.45;7.78;;;103.30;1689.60;;;;;;5053397;28;20028;-53
2021/03/04 05:50:14;;;;;;;14.63;7.22;;;103.20;1689.60;;;;;;5053563;28;20043;-52
2021/03/04 05:52:46;;;;;;;14.20;7.03;;;128.00;1664.00;;;;;;5053536;28;20497;-53
2021/03/04 05:55:13;;;;;;;14.77;7.68;;;128.30;1638.40;;;;;;5053443;28;20356;-53
2021/03/04 05:57:38;;;;;;;13.32;7.22;;;128.50;1612.80;;;;;;5053302;28;20029;-53
2021/03/04 06:00:06;;;;;;;11.40;7.28;;;128.60;1612.80;;;;;;5052797;28;20090;-53
2021/03/04 06:02:35;;;;;;;12.45;8.00;;;128.70;1587.20;;;;;;5053192;28;20033;-52
2021/03/04 06:05:00;;;;;;;11.38;7.53;;;128.80;1587.20;;;;;;5053251;28;20216;-53
2021/03/04 06:07:27;;;;;;;14.57;8.75;;;128.80;1612.80;;;;;;5052985;28;20031;-54
2021/03/04 06:09:53;;;;;;;14.50;8.63;;;128.80;1612.80;;;;;;5052946;28;20057;-53
2021/03/04 06:12:19;;;;;;;12.18;7.30;;;128.90;1587.20;;;;;;5052756;28;20498;-53
2021/03/04 06:14:45;;;;;;;141.82;89.88;;;128.90;1612.80;;;;;;5052755;28;20033;-54
2021/03/04 06:17:14;;;;;;;17.63;10.23;;;153.70;1561.60;;;;;;5052911;28;20061;-53
2021/03/04 06:19:41;;;;;;;26.02;9.45;;;154.00;1510.40;;;;;;5052804;28;20032;-53
2021/03/04 06:22:06;;;;;;;19.38;8.63;;;154.10;1510.40;;;;;;5052713;28;20033;-53
2021/03/04 06:24:32;;;;;;;19.55;11.07;;;154.30;1510.40;;;;;;5052728;28;20388;-52
2021/03/04 06:26:58;;;;;;;42.42;24.50;;;154.40;1536.00;;;;;;5052621;28;20029;-53
2021/03/04 06:29:28;;;;;;;18.27;11.82;;;154.50;1536.00;;;;;;5052583;28;20029;-53
2021/03/04 06:32:02;;;;;;;12.85;9.98;;;205.00;1382.40;;;;;;5052417;28;20033;-54
2021/03/04 06:34:28;;;;;;;42.42;35.80;;;230.90;1228.80;;;;;;5052549;28;20422;-52
2021/03/04 06:37:04;;;;;;;15.55;12.43;;;256.90;1126.40;;;;;;5052390;28;20468;-54
2021/03/04 06:39:43;;;;;;;15.48;13.68;;;307.20;1075.20;;;;;;5052376;28;20037;-53
2021/03/04 06:42:11;;;;;;;20.05;14.88;;;333.20;1049.60;;;;;;5052633;28;20027;-53
2021/03/04 06:44:43;;;;;;;58.15;42.40;;;359.10;921.60;;;;;;5052254;28;20025;-53
2021/03/04 06:47:10;;;;;;;106.53;81.20;;;384.70;870.40;;;;;;5052374;28;20021;-53
2021/03/04 06:49:41;;;;;;;156.35;119.88;;;384.80;844.80;;;;;;5052029;28;20475;-54
2021/03/04 06:52:07;;;;;;;95.50;72.97;;;435.40;793.60;;;;;;5052152;28;20033;-57
2021/03/04 06:54:34;;;;;;;75.95;64.30;;;461.00;768.00;;;;;;5051655;28;20071;-57
2021/03/04 06:57:14;;;;;;;54.50;48.00;;;486.40;716.80;;;;;;5052235;28;20522;-57
2021/03/04 06:59:40;;;;;;;53.22;46.45;;;512.00;665.60;;;;;;5052251;28;20079;-57
2021/03/04 07:02:07;;;;;;;36.13;29.52;;;512.90;665.60;;;;;;5051996;28;20100;-58
2021/03/04 07:04:33;;;;;;;74.72;67.03;;;537.70;665.60;;;;;;5051860;28;20021;-59
2021/03/04 07:07:01;;;;;;;33.75;29.60;;;538.30;640.00;;;;;;5051915;28;20112;-58
2021/03/04 07:09:28;;;;;;;34.63;27.92;;;563.50;640.00;;;;;;5051623;28;20033;-58
2021/03/04 07:11:54;;;;;;;26.20;20.08;;;564.00;588.80;;;;;;5051558;28;20493;-58
2021/03/04 07:14:21;;;;;;;26.33;20.42;;;563.30;640.00;;;;;;5051915;28;20103;-58
2021/03/04 07:16:48;;;;;;;21.20;18.13;;;538.40;640.00;;;;;;5051705;28;20021;-58
2021/03/04 07:19:19;;;;;;;23.98;19.55;;;538.10;640.00;;;;;;5051613;28;20396;-58
2021/03/04 07:21:52;;;;;;;36.17;22.98;;;512.50;665.60;;;;;;5051285;28;20025;-58
2021/03/04 07:24:20;;;;;;;49.47;33.25;;;486.50;742.40;;;;;;5051735;28;20062;-57
2021/03/04 07:26:46;;;;;;;34.13;25.92;;;486.50;716.80;;;;;;5051446;28;20482;-58
2021/03/04 07:29:14;;;;;;;44.67;37.55;;;512.60;640.00;;;;;;5051603;28;20021;-58
2021/03/04 07:31:42;;;;;;;48.58;38.85;;;512.90;614.40;;;;;;5051578;28;20021;-58
2021/03/04 07:34:17;;;;;;;144.70;121.70;;;563.50;640.00;;;;;;5050351;28;20052;-58
2021/03/04 07:36:48;;;;;;;227.63;195.70;;;589.00;588.80;;;;;;5051294;28;20047;-59
2021/03/04 07:39:14;;;;;;;209.60;184.85;;;589.40;588.80;;;;;;5050968;28;20503;-59
2021/03/04 07:41:43;;;;;;;155.88;135.00;;;614.90;512.00;;;;;;5051147;28;20517;-58
2021/03/04 07:44:11;;;;;;;143.60;121.82;;;614.50;563.20;;;;;;5069434;28;20535;-58
2021/03/04 07:46:37;;;;;;;161.88;132.45;;;615.00;537.60;;;;;;5071196;28;20103;-59
2021/03/04 07:49:06;;;;;;;167.52;147.73;;;640.30;512.00;;;;;;5070861;28;20031;-59
2021/03/04 07:51:45;;;;;;;143.63;126.28;;;640.90;486.40;;;;;;5071090;28;20509;-59
2021/03/04 07:54:12;;;;;;;140.90;126.00;;;665.80;486.40;;;;;;5071148;28;20111;-59
2021/03/04 07:56:38;;;;;;;134.27;119.45;;;665.90;512.00;;;;;;5070916;28;20021;-59
2021/03/04 07:59:13;;;;;;;127.13;113.75;;;691.20;460.80;;;;;;5070496;28;20043;-60
2021/03/04 08:01:43;;;;;;;119.22;101.40;;;692.10;435.20;;;;;;5067867;28;20094;-58
2021/03/04 08:04:22;;;;;;;135.93;121.57;;;742.60;435.20;;;;;;5069770;28;20029;-59
2021/03/04 08:06:51;;;;;;;149.35;133.38;;;742.80;435.20;;;;;;5068811;28;20029;-60
2021/03/04 08:09:30;;;;;;;151.20;135.85;;;743.00;409.60;;;;;;5067459;28;20028;-61
2021/03/04 08:12:06;;;;;;;147.43;132.13;;;742.80;435.20;;;;;;5067583;28;20372;-59
2021/03/04 08:14:32;;;;;;;136.85;121.88;;;717.70;435.20;;;;;;5070749;28;20155;-60
2021/03/04 08:16:58;;;;;;;163.13;146.63;;;717.70;460.80;;;;;;5052158;28;20115;-61
2021/03/04 08:19:28;;;;;;;125.82;112.25;;;717.70;435.20;;;;;;5052163;28;20103;-61
2021/03/04 08:22:07;;;;;;;133.43;119.32;;;717.40;460.80;;;;;;5070103;28;20032;-61
2021/03/04 08:24:35;;;;;;;139.10;123.50;;;717.10;460.80;;;;;;5070320;28;20028;-60
2021/03/04 08:27:01;;;;;;;125.93;113.00;;;717.20;460.80;;;;;;5070439;28;20021;-59
2021/03/04 08:29:27;;;;;;;145.05;129.98;;;717.20;460.80;;;;;;5070254;28;20027;-60
2021/03/04 08:31:55;;;;;;;148.85;133.05;;;717.60;435.20;;;;;;5070341;28;20043;-60
2021/03/04 08:34:22;;;;;;;128.60;115.22;;;717.30;435.20;;;;;;5070459;28;20035;-60
2021/03/04 08:36:51;;;;;;;109.05;97.75;;;742.40;460.80;;;;;;5070049;28;20103;-60
2021/03/04 08:39:19;;;;;;;80.10;71.68;;;742.60;435.20;;;;;;5070146;28;20039;-60
2021/03/04 08:41:45;;;;;;;106.15;94.90;;;717.50;435.20;;;;;;5069917;28;20047;-60
2021/03/04 08:44:16;;;;;;;92.22;82.47;;;742.70;460.80;;;;;;5070446;28;20103;-62
2021/03/04 08:46:48;;;;;;;96.05;85.68;;;742.40;460.80;;;;;;5070339;28;20020;-61
2021/03/04 08:49:18;;;;;;;78.75;69.90;;;743.10;409.60;;;;;;5069957;28;20108;-61
2021/03/04 08:51:44;;;;;;;62.20;52.88;;;768.40;384.00;;;;;;5069924;28;20052;-61
2021/03/04 08:54:22;;;;;;;70.80;63.10;;;768.00;384.00;;;;;;5070094;28;20025;-61
2021/03/04 08:57:05;;;;;;;57.72;51.85;;;794.10;358.40;;;;;;5069732;28;20463;-61
2021/03/04 08:59:31;;;;;;;;;;;768.90;358.40;;;;;;5070504;28;20028;-61
2021/03/04 09:01:58;;;;;;;57.13;51.10;;;768.70;358.40;;;;;;5069683;28;19920;-62
2021/03/04 09:04:26;;;;;;;53.55;47.83;;;793.70;384.00;;;;;;5069671;28;20511;-61
2021/03/04 09:06:53;;;;;;;57.17;46.08;;;768.10;358.40;;;;;;5069826;28;20029;-60
2021/03/04 09:09:29;;;;;;;50.97;41.00;;;742.80;409.60;;;;;;5069720;28;20029;-61
2021/03/04 09:11:56;;;;;;;42.63;37.58;;;768.70;358.40;;;;;;5069663;28;20043;-61
2021/03/04 09:14:27;;;;;;;43.90;37.00;;;794.20;332.80;;;;;;5069779;28;20035;-61
2021/03/04 09:16:53;;;;;;;48.00;42.72;;;794.00;358.40;;;;;;5071562;28;20032;-61
2021/03/04 09:19:38;;;;;;;48.42;43.17;;;768.90;332.80;;;;;;5073788;28;20025;-60
2021/03/04 09:22:07;;;;;;;55.85;40.75;;;743.30;358.40;;;;;;5073826;28;20059;-60
2021/03/04 09:24:33;;;;;;;45.00;40.28;;;742.60;384.00;;;;;;5073942;28;20028;-60
2021/03/04 09:27:10;;;;;;;38.53;30.58;;;742.40;409.60;;;;;;5073885;28;20550;-60
2021/03/04 09:29:41;;;;;;;36.40;32.90;;;716.80;358.40;;;;;;5073518;28;20420;-59
2021/03/04 09:32:07;;;;;;;33.60;28.38;;;665.60;409.60;;;;;;5073498;28;20032;-59
2021/03/04 09:34:38;;;;;;;38.65;27.75;;;640.10;435.20;;;;;;5073433;28;20016;-59
2021/03/04 09:37:13;;;;;;;39.10;29.38;;;589.70;486.40;;;;;;5073590;28;20386;-59
2021/03/04 09:39:41;;;;;;;35.53;27.63;;;588.90;512.00;;;;;;5073840;28;20029;-59
2021/03/04 09:42:07;;;;;;;57.15;49.92;;;563.40;563.20;;;;;;5073508;28;20020;-58
2021/03/04 09:44:45;;;;;;;51.10;41.35;;;563.30;588.80;;;;;;5073445;28;20020;-58
2021/03/04 09:47:25;;;;;;;37.53;27.55;;;563.50;588.80;;;;;;5073609;28;20024;-58
2021/03/04 09:49:52;;;;;;;30.40;24.10;;;563.20;588.80;;;;;;5073066;28;20028;-59
2021/03/04 09:52:23;;;;;;;35.42;24.50;;;538.40;563.20;;;;;;5073260;28;20028;-58
2021/03/04 09:54:49;;;;;;;34.78;24.75;;;512.90;588.80;;;;;;5073140;28;20020;-59
2021/03/04 09:57:21;;;;;;;26.35;18.63;;;512.50;588.80;;;;;;5072780;28;20107;-58
2021/03/04 09:59:53;;;;;;;38.95;26.27;;;512.90;563.20;;;;;;5073072;28;20057;-59
2021/03/04 10:02:20;;;;;;;28.55;23.00;;;537.60;614.40;;;;;;5073094;28;20031;-60
2021/03/04 10:04:56;;;;;;;36.00;30.65;;;512.60;588.80;;;;;;5072226;28;20016;-58
2021/03/04 10:07:24;;;;;;;40.60;28.05;;;512.70;588.80;;;;;;5072551;28;20033;-60
2021/03/04 10:09:50;;;;;;;33.42;24.42;;;512.60;614.40;;;;;;5071952;28;20090;-62
2021/03/04 10:12:15;;;;;;;36.92;28.90;;;487.30;614.40;;;;;;5062091;28;20028;-60
2021/03/04 10:14:53;;;;;;;35.58;27.30;;;512.10;588.80;;;;;;5063416;28;21724;-59
2021/03/04 10:17:19;;;;;;;51.47;36.10;;;512.40;537.60;;;;;;5071355;28;20025;-59
2021/03/04 10:19:46;;;;;;;32.28;25.08;;;512.50;512.00;;;;;;5072052;28;20016;-61
2021/03/04 10:22:12;;;;;;;21.80;12.95;;;512.70;537.60;;;;;;5072202;28;20027;-59
2021/03/04 10:24:38;;;;;;;33.70;26.17;;;512.80;435.20;;;;;;5072357;28;20021;-59
2021/03/04 10:27:05;;;;;;;32.00;23.05;;;512.80;486.40;;;;;;5071932;28;20024;-59
2021/03/04 10:29:32;;;;;;;43.95;29.48;;;512.90;512.00;;;;;;5071589;28;20021;-58
2021/03/04 10:31:58;;;;;;;34.78;24.77;;;512.70;460.80;;;;;;5056042;28;20048;-58
2021/03/04 10:34:25;;;;;;;23.10;15.27;;;512.90;460.80;;;;;;5052465;28;20021;-58
2021/03/04 10:36:50;;;;;;;31.15;21.35;;;512.80;460.80;;;;;;5052510;28;20036;-58
2021/03/04 10:39:17;;;;;;;25.90;18.00;;;512.50;486.40;;;;;;5052184;28;20090;-59
2021/03/04 10:41:44;;;;;;;24.13;17.48;;;512.70;486.40;;;;;;5052198;28;20487;-59
2021/03/04 10:44:11;;;;;;;24.13;17.45;;;512.80;486.40;;;;;;5052446;28;20025;-58
2021/03/04 10:46:37;;;;;;;25.75;17.75;;;512.80;460.80;;;;;;5052290;28;20063;-60
2021/03/04 10:49:04;;;;;;;24.88;16.13;;;512.70;460.80;;;;;;5052095;28;20025;-60
2021/03/04 10:51:31;;;;;;;19.33;13.90;;;512.80;486.40;;;;;;5052226;28;20386;-61
2021/03/04 10:53:56;;;;;;;25.25;14.88;;;512.90;460.80;;;;;;5051964;28;20040;-61
2021/03/04 10:56:22;;;;;;;22.33;15.63;;;512.90;460.80;;;;;;5052187;28;20029;-61
2021/03/04 10:58:49;;;;;;;19.60;15.10;;;512.80;486.40;;;;;;5052214;28;20032;-59
2021/03/04 11:01:15;;;;;;;23.98;17.40;;;537.60;588.80;;;;;;5051806;28;20024;-60
2021/03/04 11:03:40;;;;;;;20.98;15.90;;;512.90;486.40;;;;;;5052123;28;20352;-58
2021/03/04 11:06:07;;;;;;;21.60;16.52;;;512.90;486.40;;;;;;5051856;28;20051;-58
2021/03/04 11:08:33;;;;;;;38.30;23.73;;;512.90;460.80;;;;;;5052036;28;20032;-58
2021/03/04 11:10:59;;;;;;;50.63;36.35;;;512.90;486.40;;;;;;5051719;28;20049;-58
2021/03/04 11:13:24;;;;;;;28.20;21.27;;;537.60;537.60;;;;;;5051642;28;20044;-58
2021/03/04 11:15:50;;;;;;;22.13;18.52;;;512.90;512.00;;;;;;5051753;28;20490;-58
2021/03/04 11:18:16;;;;;;;22.73;16.40;;;512.90;486.40;;;;;;5051576;28;20021;-58
2021/03/04 11:20:42;;;;;;;19.20;14.80;;;537.60;512.00;;;;;;5051607;28;20066;-59
2021/03/04 11:23:08;;;;;;;26.88;19.40;;;512.80;460.80;;;;;;5050976;28;20032;-58
2021/03/04 11:25:34;;;;;;;26.80;16.90;;;512.90;563.20;;;;;;5051386;28;20485;-59
2021/03/04 11:28:00;;;;;;;42.10;24.33;;;512.60;486.40;;;;;;5051537;28;20029;-58
2021/03/04 11:30:25;;;;;;;33.63;19.73;;;512.40;512.00;;;;;;5051262;28;20021;-58
2021/03/04 11:32:51;;;;;;;25.65;18.48;;;512.70;512.00;;;;;;5051549;28;20039;-58
2021/03/04 11:35:17;;;;;;;49.03;32.13;;;512.50;537.60;;;;;;5051285;28;20028;-58
2021/03/04 11:37:43;;;;;;;34.38;23.52;;;512.60;537.60;;;;;;5051538;28;20592;-58
2021/03/04 11:40:09;;;;;;;48.50;28.63;;;512.30;537.60;;;;;;5050491;28;20477;-58
2021/03/04 11:42:34;;;;;;;36.47;23.77;;;512.30;537.60;;;;;;5051318;28;20021;-57
2021/03/04 11:45:00;;;;;;;27.00;18.52;;;512.50;563.20;;;;;;5051428;28;20025;-58
2021/03/04 11:47:26;;;;;;;32.13;22.52;;;512.40;512.00;;;;;;5051075;28;20085;-61
2021/03/04 11:49:53;;;;;;;22.35;17.67;;;512.70;512.00;;;;;;5051097;28;20025;-61
2021/03/04 11:52:19;;;;;;;23.33;16.33;;;512.40;512.00;;;;;;5051204;28;20099;-58
2021/03/04 11:54:45;;;;;;;32.53;24.33;;;512.50;512.00;;;;;;5050750;28;20024;-58
2021/03/04 11:57:11;;;;;;;22.95;17.05;;;512.40;537.60;;;;;;5050968;28;20535;-59
2021/03/04 11:59:37;;;;;;;21.60;17.10;;;512.20;537.60;;;;;;5066376;28;20068;-59
2021/03/04 12:02:04;;;;;;;35.58;21.75;;;512.10;537.60;;;;;;5050906;28;20063;-59
2021/03/04 12:04:29;;;;;;;25.40;16.13;;;512.20;537.60;;;;;;5050988;28;20033;-58
2021/03/04 12:06:55;;;;;;;31.90;21.63;;;512.30;563.20;;;;;;5050715;28;20044;-59
2021/03/04 12:09:21;;;;;;;19.95;16.13;;;512.50;537.60;;;;;;5050614;28;20060;-58